Time;durP1;ratioP1;P1;durP2;ratioP2;P2;SDS_P1;SDS_P2;PMS_P1;PMS_P2;Temp;Humidity;BMP_temperature;BMP_pressure;BME280_temperature;BME280_humidity;BME280_pressure;Samples;Min_cycle;Max_cycle;Signal;HPM_P1;HPM_P2
2021/01/07 00:01:28;;;;;;;56.33;27.23;;;0.60;99.90;;;;;;5052364;28;20232;-76
2021/01/07 00:03:53;;;;;;;59.20;28.30;;;0.70;99.90;;;;;;5051402;28;20185;-75
2021/01/07 00:06:19;;;;;;;51.93;26.23;;;0.50;99.90;;;;;;5038457;28;20672;-75
2021/01/07 00:08:45;;;;;;;55.10;27.60;;;0.50;99.90;;;;;;5054912;28;20172;-74
2021/01/07 00:11:11;;;;;;;57.37;26.83;;;0.50;99.90;;;;;;5055372;28;20193;-75
2021/01/07 00:13:38;;;;;;;56.93;27.60;;;0.50;99.90;;;;;;5053692;28;20177;-76
2021/01/07 00:16:05;;;;;;;53.00;25.70;;;0.50;99.90;;;;;;5049936;28;20239;-76
2021/01/07 00:18:31;;;;;;;57.33;27.63;;;0.50;99.90;;;;;;5051144;28;20223;-75
2021/01/07 00:20:58;;;;;;;61.50;27.07;;;0.40;99.90;;;;;;5052505;28;20258;-75
2021/01/07 00:23:24;;;;;;;62.40;27.87;;;0.40;99.90;;;;;;5052313;28;20181;-74
2021/01/07 00:25:52;;;;;;;56.70;27.77;;;0.30;99.90;;;;;;5052503;28;20224;-75
2021/01/07 00:28:19;;;;;;;61.57;28.63;;;0.30;99.90;;;;;;5050988;28;20655;-75
2021/01/07 00:30:45;;;;;;;55.33;27.97;;;0.30;99.90;;;;;;5052452;28;20201;-75
2021/01/07 00:33:13;;;;;;;60.50;29.23;;;0.40;99.90;;;;;;5052433;28;20166;-73
2021/01/07 00:35:39;;;;;;;60.47;28.57;;;0.50;99.90;;;;;;5050745;28;20178;-75
2021/01/07 00:38:05;;;;;;;57.63;27.80;;;0.50;99.90;;;;;;5052263;28;20239;-75
2021/01/07 00:40:32;;;;;;;60.83;28.90;;;0.50;99.90;;;;;;5051867;28;20178;-75
2021/01/07 00:42:58;;;;;;;55.20;26.30;;;0.50;99.90;;;;;;5051964;28;20184;-75
2021/01/07 00:45:23;;;;;;;59.50;27.20;;;0.60;99.90;;;;;;5051977;28;20177;-75
2021/01/07 00:47:49;;;;;;;61.40;28.67;;;0.60;99.90;;;;;;5051847;28;20279;-75
2021/01/07 00:50:15;;;;;;;60.07;27.57;;;0.60;99.90;;;;;;5050798;28;20195;-75
2021/01/07 00:52:41;;;;;;;53.33;27.13;;;0.50;99.90;;;;;;5050829;28;20671;-75
2021/01/07 00:55:08;;;;;;;54.87;26.87;;;0.60;99.90;;;;;;5048307;28;20179;-75
2021/01/07 00:57:34;;;;;;;56.03;28.10;;;0.70;99.90;;;;;;5045161;28;20186;-75
2021/01/07 01:00:00;;;;;;;52.07;26.80;;;0.70;99.90;;;;;;5051802;28;20200;-76
2021/01/07 01:02:26;;;;;;;60.77;27.30;;;0.70;99.90;;;;;;5051942;28;20696;-75
2021/01/07 01:04:51;;;;;;;61.37;28.73;;;0.60;99.90;;;;;;5051606;28;20261;-75
2021/01/07 01:07:17;;;;;;;61.03;28.43;;;0.60;99.90;;;;;;5050444;28;20208;-75
2021/01/07 01:09:43;;;;;;;59.67;29.00;;;0.60;99.90;;;;;;5051890;28;20182;-75
2021/01/07 01:12:09;;;;;;;57.30;27.57;;;0.60;99.90;;;;;;5051736;28;20185;-75
2021/01/07 01:14:36;;;;;;;58.67;28.40;;;0.60;99.90;;;;;;5055487;28;20173;-75
2021/01/07 01:17:01;;;;;;;58.90;27.20;;;0.60;99.90;;;;;;5055623;28;20648;-75
2021/01/07 01:19:27;;;;;;;63.67;29.83;;;0.60;99.90;;;;;;5055919;28;20170;-75
2021/01/07 01:21:54;;;;;;;58.73;26.97;;;0.70;99.90;;;;;;5055845;28;20209;-75
2021/01/07 01:24:20;;;;;;;59.20;28.57;;;0.70;99.90;;;;;;5055757;28;20166;-75
2021/01/07 01:26:46;;;;;;;63.63;28.73;;;0.70;99.90;;;;;;5055298;28;20275;-78
2021/01/07 01:29:13;;;;;;;60.63;27.57;;;0.70;99.90;;;;;;5055366;28;20173;-75
2021/01/07 01:31:40;;;;;;;62.23;29.03;;;0.70;99.90;;;;;;5055466;28;20201;-75
2021/01/07 01:34:08;;;;;;;65.37;29.40;;;0.70;99.90;;;;;;5055501;28;20177;-75
2021/01/07 01:36:34;;;;;;;57.97;27.77;;;0.70;99.90;;;;;;5054203;28;20249;-75
2021/01/07 01:39:00;;;;;;;64.07;28.57;;;0.70;99.90;;;;;;5055246;28;20205;-76
2021/01/07 01:41:26;;;;;;;61.73;28.40;;;0.70;99.90;;;;;;5055414;28;20284;-76
2021/01/07 01:43:51;;;;;;;60.13;26.07;;;0.60;99.90;;;;;;5055240;28;20692;-76
2021/01/07 01:46:17;;;;;;;67.37;29.77;;;0.60;99.90;;;;;;5055344;28;20197;-76
2021/01/07 01:48:44;;;;;;;59.57;27.30;;;0.60;99.90;;;;;;5055306;28;20177;-76
2021/01/07 01:51:10;;;;;;;63.87;29.27;;;0.60;99.90;;;;;;5055260;28;20220;-76
2021/01/07 01:53:37;;;;;;;59.20;27.80;;;0.60;99.90;;;;;;5055401;28;20181;-76
2021/01/07 01:56:05;;;;;;;60.03;27.43;;;0.70;99.90;;;;;;5043665;28;20193;-76
2021/01/07 01:58:34;;;;;;;62.20;29.17;;;0.60;99.90;;;;;;5055158;28;20173;-76
2021/01/07 02:01:00;;;;;;;64.57;29.00;;;0.50;99.90;;;;;;5054806;28;20214;-76
2021/01/07 02:03:26;;;;;;;63.70;28.23;;;0.50;99.90;;;;;;5054818;28;20177;-76
2021/01/07 02:05:52;;;;;;;64.60;28.80;;;0.60;99.90;;;;;;5051101;28;20644;-76
2021/01/07 02:08:18;;;;;;;63.53;29.73;;;0.50;99.90;;;;;;5055142;28;20560;-76
2021/01/07 02:10:46;;;;;;;62.00;27.53;;;0.50;99.90;;;;;;5055016;28;20189;-76
2021/01/07 02:13:12;;;;;;;70.33;31.37;;;0.50;99.90;;;;;;5051843;28;20181;-75
2021/01/07 02:15:40;;;;;;;65.43;30.00;;;0.40;99.90;;;;;;5055019;28;20256;-76
2021/01/07 02:18:09;;;;;;;70.40;31.50;;;0.40;99.90;;;;;;5053425;28;20178;-76
2021/01/07 02:20:37;;;;;;;61.03;28.27;;;0.40;99.90;;;;;;5054652;28;20176;-76
2021/01/07 02:23:03;;;;;;;65.20;29.00;;;0.40;99.90;;;;;;5054724;28;20336;-75
2021/01/07 02:25:29;;;;;;;64.60;29.67;;;0.50;99.90;;;;;;5053444;28;20181;-75
2021/01/07 02:27:55;;;;;;;68.53;29.57;;;0.50;99.90;;;;;;5054279;28;20558;-76
2021/01/07 02:30:21;;;;;;;63.53;29.37;;;0.60;99.90;;;;;;5054357;28;20219;-76
2021/01/07 02:32:47;;;;;;;65.83;29.17;;;0.60;99.90;;;;;;5054567;28;20212;-76
2021/01/07 02:35:13;;;;;;;62.77;28.63;;;0.50;99.90;;;;;;5054402;28;20409;-76
2021/01/07 02:37:41;;;;;;;61.70;28.80;;;0.40;99.90;;;;;;5054097;28;20182;-76
2021/01/07 02:40:08;;;;;;;60.80;29.13;;;0.40;99.90;;;;;;5053134;28;20671;-76
2021/01/07 02:42:34;;;;;;;61.50;27.10;;;0.50;99.90;;;;;;5054046;28;20197;-76
2021/01/07 02:45:00;;;;;;;61.53;28.20;;;0.40;99.90;;;;;;5053062;28;20177;-76
2021/01/07 02:47:26;;;;;;;61.13;28.07;;;0.40;99.90;;;;;;5054224;28;20281;-75
2021/01/07 02:49:52;;;;;;;62.30;27.37;;;0.30;99.90;;;;;;5054315;28;20184;-76
2021/01/07 02:52:18;;;;;;;66.20;27.27;;;0.20;99.90;;;;;;5054236;28;20193;-76
2021/01/07 02:54:43;;;;;;;63.33;27.90;;;0.20;99.90;;;;;;5052638;28;20177;-76
2021/01/07 02:57:09;;;;;;;60.50;26.00;;;0.20;99.90;;;;;;5043910;28;20647;-76
2021/01/07 02:59:35;;;;;;;63.00;28.13;;;0.20;99.90;;;;;;5053701;28;20188;-76
2021/01/07 03:02:01;;;;;;;73.90;29.33;;;0.10;99.90;;;;;;5053681;28;20275;-76
2021/01/07 03:04:27;;;;;;;62.80;28.07;;;0.20;99.90;;;;;;5052525;28;20181;-76
2021/01/07 03:06:52;;;;;;;60.87;26.97;;;0.20;99.90;;;;;;5053429;28;20201;-75
2021/01/07 03:09:18;;;;;;;65.67;26.93;;;0.20;99.90;;;;;;5053839;28;20177;-76
2021/01/07 03:11:44;;;;;;;61.97;27.43;;;0.20;99.90;;;;;;5053590;28;20293;-75
2021/01/07 03:14:10;;;;;;;55.43;24.93;;;0.30;99.90;;;;;;5051926;28;20634;-75
2021/01/07 03:16:35;;;;;;;55.67;26.20;;;0.30;99.90;;;;;;5042096;28;20184;-76
2021/01/07 03:19:02;;;;;;;51.70;24.77;;;0.20;99.90;;;;;;5051922;28;20512;-76
2021/01/07 03:21:28;;;;;;;57.77;25.57;;;0.20;99.90;;;;;;5052478;28;20207;-76
2021/01/07 03:23:53;;;;;;;55.27;24.53;;;0.20;99.90;;;;;;5053420;28;20178;-76
2021/01/07 03:26:19;;;;;;;56.80;26.17;;;0.30;99.90;;;;;;5053224;28;20721;-75
2021/01/07 03:28:45;;;;;;;52.70;23.87;;;0.20;99.90;;;;;;5053319;28;20252;-76
2021/01/07 03:31:11;;;;;;;57.30;24.50;;;0.30;99.90;;;;;;5051260;28;20276;-76
2021/01/07 03:33:37;;;;;;;65.17;26.43;;;0.30;99.90;;;;;;5053454;28;20184;-76
2021/01/07 03:36:04;;;;;;;53.40;25.60;;;0.30;99.90;;;;;;5052944;28;20184;-76
2021/01/07 03:38:30;;;;;;;57.40;25.80;;;0.30;99.90;;;;;;5053025;28;20177;-76
2021/01/07 03:40:55;;;;;;;60.10;26.43;;;0.20;99.90;;;;;;5052897;28;20193;-76
2021/01/07 03:43:23;;;;;;;55.97;24.93;;;0.20;99.90;;;;;;5053325;28;20177;-76
2021/01/07 03:45:48;;;;;;;60.17;26.77;;;0.30;99.90;;;;;;5052910;28;20174;-76
2021/01/07 03:48:14;;;;;;;55.37;25.27;;;0.30;99.90;;;;;;5053005;28;20710;-76
2021/01/07 03:50:40;;;;;;;57.67;25.10;;;0.40;99.90;;;;;;5052801;28;20194;-76
2021/01/07 03:53:06;;;;;;;57.73;26.47;;;0.40;99.90;;;;;;5051918;28;20236;-75
2021/01/07 03:55:32;;;;;;;54.80;25.27;;;0.40;99.90;;;;;;5046777;28;20633;-76
2021/01/07 03:57:57;;;;;;;55.67;26.23;;;0.40;99.90;;;;;;5048758;28;20177;-76
2021/01/07 04:00:23;;;;;;;54.30;26.00;;;0.40;99.90;;;;;;5051300;28;20255;-76
2021/01/07 04:02:49;;;;;;;63.10;26.73;;;0.30;99.90;;;;;;5052701;28;20174;-76
2021/01/07 04:05:15;;;;;;;54.57;26.50;;;0.40;99.90;;;;;;5052935;28;20180;-76
2021/01/07 04:07:41;;;;;;;58.27;26.73;;;0.30;99.90;;;;;;5051628;28;20197;-75
2021/01/07 04:10:08;;;;;;;60.23;26.43;;;0.40;99.90;;;;;;5047674;28;20174;-76
2021/01/07 04:12:35;;;;;;;56.70;27.17;;;0.50;99.90;;;;;;5052474;28;20527;-76
2021/01/07 04:15:06;;;;;;;58.80;25.40;;;0.40;99.90;;;;;;5041026;28;20186;-76
2021/01/07 04:17:32;;;;;;;59.10;26.10;;;0.40;99.90;;;;;;5051666;28;20651;-76
2021/01/07 04:19:58;;;;;;;68.60;28.73;;;0.40;99.90;;;;;;5052370;28;20184;-76
2021/01/07 04:22:25;;;;;;;62.93;28.00;;;0.40;99.90;;;;;;5051008;28;20201;-76
2021/01/07 04:24:51;;;;;;;62.00;27.07;;;0.40;99.90;;;;;;5052344;28;20190;-76
2021/01/07 04:27:17;;;;;;;65.43;28.90;;;0.40;99.90;;;;;;5050985;28;20196;-76
2021/01/07 04:29:45;;;;;;;69.47;29.87;;;0.40;99.90;;;;;;5052373;28;20204;-76
2021/01/07 04:32:11;;;;;;;72.33;29.93;;;0.30;99.90;;;;;;5050745;28;20194;-76
2021/01/07 04:34:38;;;;;;;68.03;28.63;;;0.30;99.90;;;;;;5052319;28;20189;-75
2021/01/07 04:37:03;;;;;;;65.83;29.37;;;0.40;99.90;;;;;;5040233;28;20178;-76
2021/01/07 04:39:29;;;;;;;74.27;29.97;;;0.40;99.90;;;;;;5050500;28;20177;-75
2021/01/07 04:41:55;;;;;;;73.97;30.87;;;0.40;99.90;;;;;;5052367;28;20201;-76
2021/01/07 04:44:22;;;;;;;66.63;29.73;;;0.40;99.90;;;;;;5052346;28;20185;-76
2021/01/07 04:46:48;;;;;;;72.53;30.57;;;0.50;99.90;;;;;;5052346;28;20660;-76
2021/01/07 04:49:14;;;;;;;72.97;30.40;;;0.50;99.90;;;;;;5054797;28;20254;-76
2021/01/07 04:51:40;;;;;;;72.37;31.77;;;0.50;99.90;;;;;;5056455;28;20239;-76
2021/01/07 04:54:06;;;;;;;66.77;29.70;;;0.40;99.90;;;;;;5056149;28;20174;-75
2021/01/07 04:56:32;;;;;;;63.77;29.13;;;0.50;99.90;;;;;;5046205;28;20533;-75
2021/01/07 04:58:58;;;;;;;71.33;30.43;;;0.40;99.90;;;;;;5056076;28;20199;-76
2021/01/07 05:01:23;;;;;;;69.33;30.90;;;0.40;99.90;;;;;;5039818;28;20232;-76
2021/01/07 05:03:52;;;;;;;70.33;29.83;;;0.50;99.90;;;;;;5032781;28;20204;-76
2021/01/07 05:06:25;;;;;;;65.37;29.37;;;0.50;99.90;;;;;;5034371;28;20205;-76
2021/01/07 05:09:05;;;;;;;67.43;29.23;;;0.60;99.90;;;;;;5055162;28;20176;-75
2021/01/07 05:11:32;;;;;;;68.47;28.30;;;0.60;99.90;;;;;;5053553;28;20196;-76
2021/01/07 05:14:09;;;;;;;67.90;31.63;;;0.60;99.90;;;;;;5055833;28;20174;-76
2021/01/07 05:16:35;;;;;;;64.27;29.87;;;0.60;99.90;;;;;;5055008;28;20272;-75
2021/01/07 05:19:06;;;;;;;65.90;30.30;;;0.60;99.90;;;;;;5056021;28;20173;-76
2021/01/07 05:21:34;;;;;;;70.43;32.27;;;0.70;99.90;;;;;;5055974;28;20202;-76
2021/01/07 05:24:00;;;;;;;67.80;31.37;;;0.70;99.90;;;;;;5055669;28;20174;-76
2021/01/07 05:26:26;;;;;;;64.37;29.30;;;0.70;99.90;;;;;;5055747;28;20743;-75
2021/01/07 05:28:57;;;;;;;70.03;30.97;;;0.60;99.90;;;;;;5055617;28;20216;-76
2021/01/07 05:31:25;;;;;;;72.30;31.47;;;0.50;99.90;;;;;;5058929;28;20204;-76
2021/01/07 05:33:52;;;;;;;68.93;30.43;;;0.50;99.90;;;;;;5047520;28;20245;-76
2021/01/07 05:36:29;;;;;;;71.03;31.17;;;0.50;99.90;;;;;;5059253;28;20791;-76
2021/01/07 05:39:05;;;;;;;71.37;31.20;;;0.50;99.90;;;;;;5055674;28;20590;-76
2021/01/07 05:41:35;;;;;;;70.90;31.03;;;0.50;99.90;;;;;;5055862;28;20196;-76
2021/01/07 05:44:13;;;;;;;73.20;31.47;;;0.50;99.90;;;;;;5055690;28;20212;-76
2021/01/07 05:46:39;;;;;;;73.30;30.30;;;0.40;99.90;;;;;;5054448;28;20201;-76
2021/01/07 05:49:05;;;;;;;67.30;30.17;;;0.40;99.90;;;;;;5037768;28;20173;-76
2021/01/07 05:51:31;;;;;;;75.90;32.30;;;0.40;99.90;;;;;;5053736;28;20247;-75
2021/01/07 05:53:59;;;;;;;71.03;30.43;;;0.50;99.90;;;;;;5055138;28;20181;-76
2021/01/07 05:56:26;;;;;;;81.73;32.77;;;0.50;99.90;;;;;;5045197;28;20181;-76
2021/01/07 05:58:55;;;;;;;73.47;32.93;;;0.50;99.90;;;;;;5053451;28;20655;-76
2021/01/07 06:01:22;;;;;;;70.47;30.90;;;0.40;99.90;;;;;;5053221;28;20214;-76
2021/01/07 06:03:50;;;;;;;76.27;31.97;;;0.50;99.90;;;;;;5050621;28;20623;-76
2021/01/07 06:06:18;;;;;;;75.47;31.60;;;0.50;99.90;;;;;;5054747;28;20210;-76
2021/01/07 06:08:52;;;;;;;74.83;31.70;;;0.50;99.90;;;;;;5054102;28;20201;-76
2021/01/07 06:11:19;;;;;;;70.83;31.67;;;0.60;99.90;;;;;;5034745;28;20196;-76
2021/01/07 06:13:47;;;;;;;71.43;32.03;;;0.50;99.90;;;;;;5054735;28;20174;-76
2021/01/07 06:16:15;;;;;;;74.10;30.03;;;0.50;99.90;;;;;;5054738;28;20173;-76
2021/01/07 06:18:41;;;;;;;79.03;32.60;;;0.60;99.90;;;;;;5054661;28;20174;-76
2021/01/07 06:21:11;;;;;;;76.33;31.90;;;0.50;99.90;;;;;;5053597;28;20764;-75
2021/01/07 06:23:47;;;;;;;74.20;32.70;;;0.50;99.90;;;;;;5054845;28;20547;-76
2021/01/07 06:26:21;;;;;;;74.43;32.03;;;0.50;99.90;;;;;;5053250;28;20216;-76
2021/01/07 06:28:54;;;;;;;72.13;31.67;;;0.50;99.90;;;;;;5054443;28;20170;-76
2021/01/07 06:31:20;;;;;;;78.97;32.60;;;0.50;99.90;;;;;;5052263;28;20206;-76
2021/01/07 06:33:49;;;;;;;78.60;32.93;;;0.40;99.90;;;;;;5054528;28;20201;-76
2021/01/07 06:36:15;;;;;;;74.20;32.10;;;0.40;99.90;;;;;;5054170;28;20204;-75
2021/01/07 06:38:51;;;;;;;79.60;32.93;;;0.50;99.90;;;;;;5052975;28;20675;-76
2021/01/07 06:41:18;;;;;;;83.43;33.97;;;0.50;99.90;;;;;;5054137;28;20242;-76
2021/01/07 06:43:47;;;;;;;72.77;32.70;;;0.60;99.90;;;;;;5052873;28;20190;-76
2021/01/07 06:46:36;;;;;;;72.30;31.00;;;0.70;99.90;;;;;;5053822;28;20194;-75
2021/01/07 06:49:23;;;;;;;73.53;31.77;;;0.60;99.90;;;;;;5054101;28;20235;-76
2021/01/07 06:52:15;;;;;;;71.60;31.63;;;0.70;99.90;;;;;;5053968;28;20232;-76
2021/01/07 06:54:46;;;;;;;75.63;32.10;;;0.70;99.90;;;;;;5050526;28;20184;-75
2021/01/07 06:57:13;;;;;;;70.80;30.57;;;0.70;99.90;;;;;;5043805;28;20552;-76
2021/01/07 06:59:59;;;;;;;68.13;31.47;;;0.80;99.90;;;;;;5054130;28;20598;-76
2021/01/07 07:02:26;;;;;;;71.00;31.70;;;0.70;99.90;;;;;;5053779;28;20734;-75
2021/01/07 07:04:58;;;;;;;73.07;32.00;;;0.70;99.90;;;;;;5053753;28;20285;-76
2021/01/07 07:07:30;;;;;;;76.97;32.33;;;0.80;99.90;;;;;;5053507;28;20190;-76
2021/01/07 07:10:18;;;;;;;70.47;32.10;;;0.80;99.90;;;;;;5053950;28;20178;-76
2021/01/07 07:12:52;;;;;;;71.67;31.13;;;0.80;99.90;;;;;;5053590;28;20170;-75
2021/01/07 07:15:22;;;;;;;66.80;31.10;;;0.70;99.90;;;;;;5053488;28;20176;-75
2021/01/07 07:17:49;;;;;;;73.67;33.27;;;0.60;99.90;;;;;;5052352;28;20212;-76
2021/01/07 07:20:22;;;;;;;69.07;30.80;;;0.50;99.90;;;;;;5052199;28;20184;-76
2021/01/07 07:22:48;;;;;;;67.93;32.33;;;0.50;99.90;;;;;;5053457;28;20713;-75
2021/01/07 07:25:22;;;;;;;74.43;32.43;;;0.40;99.90;;;;;;5053323;28;20189;-75
2021/01/07 07:27:58;;;;;;;78.80;32.40;;;0.40;99.90;;;;;;5052052;28;20564;-76
2021/01/07 07:30:26;;;;;;;74.50;32.40;;;0.40;99.90;;;;;;5053303;28;20687;-75
2021/01/07 07:32:52;;;;;;;82.27;33.83;;;0.30;99.90;;;;;;5051850;28;20173;-76
2021/01/07 07:35:34;;;;;;;77.37;33.57;;;0.40;99.90;;;;;;5053578;28;20177;-75
2021/01/07 07:38:00;;;;;;;75.37;32.80;;;0.30;99.90;;;;;;5053167;28;20173;-76
2021/01/07 07:40:35;;;;;;;78.93;34.23;;;0.40;99.90;;;;;;5051816;28;20176;-76
2021/01/07 07:43:03;;;;;;;77.40;33.00;;;0.40;99.90;;;;;;5053135;28;20204;-76
2021/01/07 07:45:32;;;;;;;82.50;34.33;;;0.40;99.90;;;;;;5051705;28;20203;-76
2021/01/07 07:47:59;;;;;;;70.67;31.83;;;0.40;99.90;;;;;;5053131;28;20613;-76
2021/01/07 07:50:29;;;;;;;71.97;32.23;;;0.40;99.90;;;;;;5052923;28;20205;-76
2021/01/07 07:53:08;;;;;;;68.73;31.27;;;0.40;99.90;;;;;;5052823;28;20184;-76
2021/01/07 07:55:35;;;;;;;75.87;34.07;;;0.40;99.90;;;;;;5045639;28;20181;-76
2021/01/07 07:58:14;;;;;;;69.90;31.63;;;0.50;99.90;;;;;;5049471;28;20243;-75
2021/01/07 08:00:51;;;;;;;70.63;31.73;;;0.40;99.90;;;;;;5050166;28;20266;-76
2021/01/07 08:03:28;;;;;;;74.43;30.57;;;0.40;99.90;;;;;;5048467;28;20170;-75
2021/01/07 08:05:54;;;;;;;77.53;32.83;;;0.40;99.90;;;;;;5050904;28;20262;-76
2021/01/07 08:08:28;;;;;;;66.33;31.90;;;0.40;99.90;;;;;;5049500;28;20260;-76
2021/01/07 08:10:56;;;;;;;72.70;32.77;;;0.40;99.90;;;;;;5052779;28;20208;-75
2021/01/07 08:13:23;;;;;;;72.90;31.67;;;0.40;99.90;;;;;;5052605;28;20201;-75
2021/01/07 08:15:51;;;;;;;60.73;29.70;;;0.50;99.90;;;;;;5052254;28;20253;-75
2021/01/07 08:18:18;;;;;;;66.13;30.93;;;0.50;99.90;;;;;;5052631;28;20183;-75
2021/01/07 08:20:44;;;;;;;63.80;30.10;;;0.50;99.90;;;;;;5052431;28;20259;-75
2021/01/07 08:23:11;;;;;;;66.03;32.37;;;0.50;99.90;;;;;;5052373;28;20660;-75
2021/01/07 08:25:43;;;;;;;69.67;31.80;;;0.50;99.90;;;;;;5052191;28;20230;-75
2021/01/07 08:28:35;;;;;;;66.90;31.43;;;0.50;99.90;;;;;;5050942;28;20684;-75
2021/01/07 08:31:10;;;;;;;60.73;30.00;;;0.50;99.90;;;;;;5052024;28;20205;-75
2021/01/07 08:33:37;;;;;;;56.60;28.63;;;0.50;99.90;;;;;;5052210;28;20644;-76
2021/01/07 08:36:07;;;;;;;65.23;29.43;;;0.50;99.90;;;;;;5052731;28;20177;-75
2021/01/07 08:38:34;;;;;;;63.80;31.10;;;0.50;99.90;;;;;;5052529;28;20179;-75
2021/01/07 08:41:14;;;;;;;70.17;32.23;;;0.50;99.90;;;;;;5052282;28;20223;-76
2021/01/07 08:43:41;;;;;;;61.40;29.47;;;0.50;99.90;;;;;;5052316;28;20173;-76
2021/01/07 08:46:26;;;;;;;66.70;30.53;;;0.50;99.90;;;;;;5051903;28;20173;-75
2021/01/07 08:49:02;;;;;;;65.37;31.17;;;0.50;99.90;;;;;;5050780;28;20172;-75
2021/01/07 08:51:28;;;;;;;69.73;32.60;;;0.60;99.90;;;;;;5051928;28;20569;-75
2021/01/07 08:53:55;;;;;;;65.13;29.80;;;0.60;99.90;;;;;;5052107;28;20207;-76
2021/01/07 08:56:52;;;;;;;60.87;29.13;;;0.60;99.90;;;;;;5042203;28;20190;-75
2021/01/07 08:59:26;;;;;;;62.67;30.23;;;0.60;99.90;;;;;;5050758;28;20214;-76
2021/01/07 09:01:54;;;;;;;61.43;30.23;;;0.60;99.90;;;;;;5050543;28;20297;-75
2021/01/07 09:04:23;;;;;;;58.33;29.47;;;0.60;99.90;;;;;;5052018;28;20174;-74
2021/01/07 09:07:03;;;;;;;60.63;29.80;;;0.60;99.90;;;;;;5051912;28;20667;-75
2021/01/07 09:09:50;;;;;;;57.37;29.37;;;0.60;99.90;;;;;;5051829;28;20189;-76
2021/01/07 09:12:28;;;;;;;67.30;30.40;;;0.60;99.90;;;;;;5040600;28;20197;-75
2021/01/07 09:14:58;;;;;;;58.93;28.20;;;0.60;99.90;;;;;;5052099;28;20185;-76
2021/01/07 09:17:44;;;;;;;64.23;28.47;;;0.60;99.90;;;;;;5051884;28;20283;-75
2021/01/07 09:20:12;;;;;;;63.67;30.20;;;0.50;99.90;;;;;;5051848;28;20674;-75
2021/01/07 09:22:39;;;;;;;61.10;29.27;;;0.50;99.90;;;;;;5051854;28;20221;-75
2021/01/07 09:25:06;;;;;;;57.03;28.63;;;0.60;99.90;;;;;;5051813;28;20193;-76
2021/01/07 09:27:32;;;;;;;64.97;30.30;;;0.60;99.90;;;;;;5051881;28;20211;-76
2021/01/07 09:29:58;;;;;;;63.27;29.13;;;0.60;99.90;;;;;;5050409;28;20177;-75
2021/01/07 09:32:24;;;;;;;55.30;26.87;;;0.70;99.90;;;;;;5051562;28;20236;-76
2021/01/07 09:34:50;;;;;;;63.00;27.60;;;0.60;99.90;;;;;;5053927;28;20185;-75
2021/01/07 09:37:18;;;;;;;53.73;27.97;;;0.70;99.90;;;;;;5055471;28;20177;-76
2021/01/07 09:39:45;;;;;;;56.57;28.57;;;0.70;99.90;;;;;;5055584;28;20254;-76
2021/01/07 09:42:11;;;;;;;55.60;28.70;;;0.70;99.90;;;;;;5055220;28;20212;-76
2021/01/07 09:44:37;;;;;;;54.17;27.87;;;0.60;99.90;;;;;;5055259;28;20176;-76
2021/01/07 09:47:04;;;;;;;56.77;27.57;;;0.70;99.90;;;;;;5055343;28;20216;-75
2021/01/07 09:49:31;;;;;;;55.50;29.23;;;0.70;99.90;;;;;;5053879;28;20177;-76
2021/01/07 09:51:57;;;;;;;54.67;27.77;;;0.70;99.90;;;;;;5055136;28;20211;-75
2021/01/07 09:54:23;;;;;;;56.77;28.03;;;0.70;99.90;;;;;;5055301;28;20226;-76
2021/01/07 09:56:52;;;;;;;60.87;29.70;;;0.70;99.90;;;;;;5045166;28;20182;-75
2021/01/07 09:59:22;;;;;;;55.67;29.00;;;0.70;99.90;;;;;;5054981;28;20173;-75
2021/01/07 10:01:52;;;;;;;52.37;26.83;;;0.70;99.90;;;;;;5053117;28;20676;-76
2021/01/07 10:04:18;;;;;;;54.53;28.33;;;0.80;99.90;;;;;;5055356;28;20580;-75
2021/01/07 10:06:44;;;;;;;63.70;29.40;;;0.80;99.90;;;;;;5052131;28;20268;-75
2021/01/07 10:09:10;;;;;;;58.60;28.03;;;0.80;99.90;;;;;;5056583;28;20174;-74
2021/01/07 10:11:35;;;;;;;53.47;26.90;;;0.90;99.90;;;;;;5053578;28;20201;-75
2021/01/07 10:14:02;;;;;;;56.00;28.73;;;0.90;99.90;;;;;;5054759;28;20177;-75
2021/01/07 10:16:27;;;;;;;50.50;27.43;;;0.90;99.90;;;;;;5053465;28;20184;-76
2021/01/07 10:18:54;;;;;;;53.30;28.50;;;0.90;99.90;;;;;;5054759;28;20280;-75
2021/01/07 10:21:22;;;;;;;56.63;28.27;;;0.90;99.90;;;;;;5054693;28;20251;-75
2021/01/07 10:23:50;;;;;;;59.53;28.27;;;0.90;99.90;;;;;;5055167;28;20205;-76
2021/01/07 10:26:17;;;;;;;53.23;27.53;;;1.00;99.90;;;;;;5054607;28;20201;-74
2021/01/07 10:28:47;;;;;;;55.97;28.37;;;1.10;99.90;;;;;;5054514;28;20173;-75
2021/01/07 10:31:18;;;;;;;58.97;29.43;;;1.00;99.90;;;;;;5054658;28;20190;-75
2021/01/07 10:33:47;;;;;;;56.10;29.37;;;1.00;99.90;;;;;;5053144;28;20181;-75
2021/01/07 10:36:14;;;;;;;55.90;28.80;;;1.00;99.90;;;;;;5054340;28;20211;-75
2021/01/07 10:38:40;;;;;;;62.13;28.80;;;1.00;99.90;;;;;;5054339;28;20178;-75
2021/01/07 10:41:07;;;;;;;53.97;28.17;;;1.10;99.90;;;;;;5054118;28;20202;-75
2021/01/07 10:43:35;;;;;;;50.10;26.63;;;1.10;99.90;;;;;;5054556;28;20185;-76
2021/01/07 10:46:02;;;;;;;49.63;25.33;;;1.10;99.90;;;;;;5052952;28;20173;-75
2021/01/07 10:48:30;;;;;;;53.77;27.87;;;1.10;99.90;;;;;;5054086;28;20226;-75
2021/01/07 10:51:00;;;;;;;50.73;25.50;;;1.10;99.90;;;;;;5054289;28;20193;-75
2021/01/07 10:53:36;;;;;;;50.30;26.63;;;1.00;99.90;;;;;;5054428;28;20623;-75
2021/01/07 10:56:04;;;;;;;44.80;24.17;;;1.00;99.90;;;;;;5044655;28;20231;-75
2021/01/07 10:58:33;;;;;;;47.63;25.47;;;1.10;99.90;;;;;;5055073;28;20243;-75
2021/01/07 11:01:08;;;;;;;46.13;25.93;;;1.10;99.90;;;;;;5054154;28;20212;-75
2021/01/07 11:03:59;;;;;;;45.70;25.77;;;1.20;99.90;;;;;;5054528;28;20651;-74
2021/01/07 11:06:33;;;;;;;45.33;24.50;;;1.30;99.90;;;;;;5039034;28;20199;-74
2021/01/07 11:09:06;;;;;;;44.63;23.97;;;1.40;99.90;;;;;;5042097;28;20180;-75
2021/01/07 11:11:40;;;;;;;42.73;22.57;;;1.50;99.90;;;;;;5033713;28;20237;-74
2021/01/07 11:14:18;;;;;;;40.57;23.23;;;1.40;99.90;;;;;;5039091;28;20187;-75
2021/01/07 11:16:48;;;;;;;42.73;23.07;;;1.40;99.90;;;;;;5042389;28;20193;-74
2021/01/07 11:19:23;;;;;;;40.23;21.70;;;1.40;99.90;;;;;;5053690;28;20231;-74
2021/01/07 11:22:00;;;;;;;38.23;20.47;;;1.40;99.90;;;;;;5046285;28;20279;-75
2021/01/07 11:24:27;;;;;;;33.97;21.03;;;1.30;99.90;;;;;;5043134;28;20603;-75
2021/01/07 11:26:58;;;;;;;36.50;20.27;;;1.40;99.90;;;;;;5037045;28;20285;-74
2021/01/07 11:29:25;;;;;;;39.13;23.00;;;1.40;99.90;;;;;;5033187;28;20209;-74
2021/01/07 11:31:57;;;;;;;42.87;23.00;;;1.40;99.90;;;;;;5022993;28;20194;-74
2021/01/07 11:34:25;;;;;;;39.33;22.53;;;1.50;99.90;;;;;;5048600;28;20176;-75
2021/01/07 11:37:22;;;;;;;38.90;23.27;;;1.60;99.90;;;;;;5053569;28;20174;-74
2021/01/07 11:40:05;;;;;;;40.27;21.83;;;1.60;99.90;;;;;;5016473;28;20665;-74
2021/01/07 11:42:44;;;;;;;41.97;22.83;;;1.60;99.90;;;;;;5031304;28;20221;-74
2021/01/07 11:45:20;;;;;;;42.03;23.40;;;1.60;99.90;;;;;;5032627;28;20243;-74
2021/01/07 11:47:54;;;;;;;38.57;22.90;;;1.70;99.90;;;;;;5049386;28;20201;-74
2021/01/07 11:50:25;;;;;;;44.20;23.93;;;1.70;99.90;;;;;;5034316;28;20170;-73
2021/01/07 11:52:54;;;;;;;42.17;24.80;;;1.80;99.90;;;;;;5045592;28;20178;-74
2021/01/07 11:55:22;;;;;;;37.87;22.20;;;1.80;99.90;;;;;;5047584;28;20206;-74
2021/01/07 11:57:48;;;;;;;40.80;23.03;;;1.80;99.90;;;;;;5035132;28;20185;-74
2021/01/07 12:00:19;;;;;;;44.33;24.37;;;1.80;99.90;;;;;;5033211;28;20555;-75
2021/01/07 12:02:48;;;;;;;45.10;24.77;;;1.90;99.90;;;;;;5037056;28;20577;-75
2021/01/07 12:05:19;;;;;;;38.53;23.77;;;2.00;99.90;;;;;;5038961;28;20185;-75
2021/01/07 12:07:53;;;;;;;43.97;23.80;;;2.00;99.90;;;;;;5047900;28;20210;-76
2021/01/07 12:10:22;;;;;;;41.63;24.97;;;2.00;99.90;;;;;;5045526;28;20173;-75
2021/01/07 12:13:04;;;;;;;44.03;24.57;;;2.10;99.90;;;;;;5052943;28;20165;-74
2021/01/07 12:15:34;;;;;;;40.87;23.87;;;2.10;99.90;;;;;;5049067;28;20517;-75
2021/01/07 12:18:02;;;;;;;38.83;23.73;;;2.20;99.90;;;;;;5043372;28;20228;-74
2021/01/07 12:20:28;;;;;;;37.77;21.93;;;2.30;99.90;;;;;;5040504;28;20185;-76
2021/01/07 12:22:55;;;;;;;35.37;23.37;;;2.30;99.90;;;;;;5047895;28;20232;-75
2021/01/07 12:25:22;;;;;;;38.50;22.43;;;2.30;99.90;;;;;;5052359;28;20180;-74
2021/01/07 12:27:48;;;;;;;38.10;22.93;;;2.30;99.90;;;;;;5052012;28;20225;-75
2021/01/07 12:30:19;;;;;;;36.60;21.17;;;2.20;99.90;;;;;;5052341;28;20216;-75
2021/01/07 12:33:11;;;;;;;38.90;23.37;;;2.20;99.90;;;;;;5052180;28;20202;-74
2021/01/07 12:35:45;;;;;;;36.13;21.67;;;2.10;99.90;;;;;;5041244;28;20224;-76
2021/01/07 12:38:52;;;;;;;34.47;20.73;;;2.10;99.90;;;;;;5052501;28;20185;-75
2021/01/07 12:41:24;;;;;;;40.23;22.50;;;2.10;99.90;;;;;;5052181;28;20200;-75
2021/01/07 12:43:53;;;;;;;38.13;21.90;;;2.10;99.90;;;;;;5052162;28;20575;-75
2021/01/07 12:46:23;;;;;;;36.87;21.73;;;2.10;99.90;;;;;;5052197;28;20239;-76